createdAt,value
2023-03-22T00:01:37.367Z,41.00
2023-03-22T00:04:07.899Z,46.75
2023-03-22T00:06:40.985Z,44.00
2023-03-22T00:09:20.983Z,43.50
2023-03-22T00:12:24.263Z,41.75
2023-03-22T00:14:54.951Z,43.50
2023-03-22T00:17:25.937Z,41.00
2023-03-22T00:19:56.520Z,40.00
2023-03-22T00:22:26.683Z,42.50
2023-03-22T00:25:00.937Z,43.75
2023-03-22T00:27:31.920Z,42.00
2023-03-22T00:30:02.936Z,42.50
2023-03-22T00:32:40.616Z,43.75
2023-03-22T00:35:12.109Z,43.50
2023-03-22T00:37:44.004Z,38.25
2023-03-22T00:40:18.522Z,43.00
2023-03-22T00:42:48.939Z,39.00
2023-03-22T00:45:19.666Z,39.50
2023-03-22T00:47:50.147Z,42.50
2023-03-22T00:50:21.424Z,40.50
2023-03-22T00:52:51.774Z,42.50
2023-03-22T00:55:22.491Z,46.00
2023-03-22T00:57:52.866Z,37.50
2023-03-22T01:00:23.160Z,43.25
2023-03-22T01:02:54.238Z,38.50
2023-03-22T01:05:24.560Z,44.00
2023-03-22T01:07:55.193Z,45.75
2023-03-22T01:10:27.030Z,42.75
2023-03-22T01:12:57.522Z,42.75
2023-03-22T01:15:28.013Z,39.25
2023-03-22T01:17:58.857Z,45.00
2023-03-22T01:20:29.926Z,42.00
2023-03-22T01:23:00.551Z,46.50
2023-03-22T01:25:30.779Z,38.75
2023-03-22T01:28:01.011Z,43.25
2023-03-22T01:30:32.548Z,41.50
2023-03-22T01:33:03.859Z,41.00
2023-03-22T01:35:36.175Z,37.50
2023-03-22T01:38:06.982Z,47.00
2023-03-22T01:40:37.643Z,41.25
2023-03-22T01:43:13.724Z,43.50
2023-03-22T01:45:52.316Z,43.75
2023-03-22T01:48:28.452Z,46.00
2023-03-22T01:51:14.590Z,44.75
2023-03-22T01:53:50.998Z,45.75
2023-03-22T01:56:24.422Z,44.00
2023-03-22T01:58:56.384Z,45.75
2023-03-22T02:01:26.875Z,40.00
2023-03-22T02:04:18.520Z,40.00
2023-03-22T02:06:50.745Z,42.75
2023-03-22T02:09:21.446Z,43.50
2023-03-22T02:11:55.232Z,45.00
2023-03-22T02:14:46.759Z,43.25
2023-03-22T02:17:41.290Z,43.00
2023-03-22T02:20:29.530Z,43.75
2023-03-22T02:23:19.669Z,42.75
2023-03-22T02:26:19.745Z,41.50
2023-03-22T02:29:09.070Z,43.00
2023-03-22T02:32:00.358Z,42.75
2023-03-22T02:34:48.524Z,41.00
2023-03-22T02:37:33.838Z,39.50
2023-03-22T02:40:33.467Z,41.25
2023-03-22T02:43:21.340Z,43.75
2023-03-22T02:45:59.318Z,40.75
2023-03-22T02:48:32.692Z,39.25
2023-03-22T02:51:11.463Z,41.50
2023-03-22T02:53:59.485Z,37.00
2023-03-22T02:56:32.601Z,37.00
2023-03-22T02:59:06.475Z,36.75
2023-03-22T03:01:45.894Z,37.50
2023-03-22T03:04:19.359Z,30.75
2023-03-22T03:06:51.771Z,36.50
2023-03-22T03:09:23.779Z,34.50
2023-03-22T03:11:54.461Z,30.00
2023-03-22T03:14:30.125Z,36.25
2023-03-22T03:17:15.433Z,36.25
2023-03-22T03:19:52.417Z,37.00
2023-03-22T03:22:42.290Z,35.50
2023-03-22T03:25:27.579Z,39.00
2023-03-22T03:28:06.497Z,23.00
2023-03-22T03:30:40.341Z,16.25
2023-03-22T03:33:13.785Z,45.00
2023-03-22T03:35:53.883Z,40.00
2023-03-22T03:38:27.301Z,46.50
2023-03-22T03:41:06.056Z,44.75
2023-03-22T03:43:39.439Z,46.00
2023-03-22T03:46:15.627Z,48.00
2023-03-22T03:48:48.867Z,45.50
2023-03-22T03:51:20.560Z,44.75
2023-03-22T03:53:51.016Z,49.50
2023-03-22T03:56:21.287Z,63.00
2023-03-22T03:58:51.993Z,47.00
2023-03-22T04:01:22.285Z,45.25
2023-03-22T04:03:52.691Z,51.25
2023-03-22T04:06:23.184Z,50.50
2023-03-22T04:08:53.670Z,48.50
2023-03-22T04:11:24.738Z,52.25
2023-03-22T04:13:55.768Z,50.00
2023-03-22T04:16:26.123Z,53.25
2023-03-22T04:18:57.876Z,54.50
2023-03-22T04:21:28.876Z,55.00
2023-03-22T04:23:59.517Z,47.25
2023-03-22T04:26:31.160Z,44.25
2023-03-22T04:29:03.510Z,40.25
2023-03-22T04:31:34.572Z,43.50
2023-03-22T04:34:07.833Z,44.50
2023-03-22T04:36:39.082Z,42.75
2023-03-22T04:39:12.045Z,53.50
2023-03-22T04:41:42.370Z,51.25
2023-03-22T04:44:13.653Z,50.50
2023-03-22T04:46:43.873Z,48.00
2023-03-22T04:49:15.407Z,40.50
2023-03-22T04:51:45.864Z,41.50
2023-03-22T04:54:16.238Z,45.00
2023-03-22T04:56:48.376Z,43.75
2023-03-22T04:59:20.029Z,42.25
2023-03-22T05:01:51.405Z,43.00
2023-03-22T05:04:22.725Z,43.75
2023-03-22T05:06:53.398Z,44.25
2023-03-22T05:09:26.433Z,46.50
2023-03-22T05:11:57.969Z,48.00
2023-03-22T05:14:28.843Z,50.25
2023-03-22T05:16:59.595Z,52.00
2023-03-22T05:19:30.098Z,53.75
2023-03-22T05:22:02.017Z,50.25
2023-03-22T05:24:33.302Z,52.75
2023-03-22T05:27:06.656Z,52.75
2023-03-22T05:29:37.875Z,48.50
2023-03-22T05:32:11.849Z,50.25
2023-03-22T05:34:44.592Z,49.50
2023-03-22T05:37:16.088Z,47.50
2023-03-22T05:39:46.363Z,48.25
2023-03-22T05:42:17.006Z,48.75
2023-03-22T05:44:48.842Z,51.25
2023-03-22T05:47:19.451Z,48.25
2023-03-22T05:49:49.776Z,42.50
2023-03-22T05:52:20.715Z,53.00
2023-03-22T05:54:51.047Z,53.25
2023-03-22T05:57:24.474Z,52.00
2023-03-22T05:59:57.028Z,55.50
2023-03-22T06:02:27.905Z,53.00
2023-03-22T06:04:58.724Z,50.50
2023-03-22T06:07:29.416Z,51.00
2023-03-22T06:10:00.365Z,49.75
2023-03-22T06:12:32.324Z,44.50
2023-03-22T06:15:04.059Z,47.25
2023-03-22T06:17:35.825Z,46.25
2023-03-22T06:20:12.259Z,49.00
2023-03-22T06:22:43.443Z,48.75
2023-03-22T06:25:46.412Z,46.75
2023-03-22T06:28:31.999Z,50.25
2023-03-22T06:31:10.430Z,45.50
2023-03-22T06:36:40.619Z,48.25
2023-03-22T06:39:20.891Z,46.50
2023-03-22T06:42:01.816Z,45.75
2023-03-22T06:44:32.546Z,47.50
2023-03-22T06:47:05.230Z,47.75
2023-03-22T06:49:39.181Z,45.50
2023-03-22T06:52:10.903Z,48.50
2023-03-22T06:54:50.548Z,47.75
2023-03-22T06:57:25.166Z,50.00
2023-03-22T06:59:55.950Z,40.50
2023-03-22T07:02:32.317Z,115.25
2023-03-22T07:05:03.073Z,54.50
2023-03-22T07:07:35.924Z,47.00
2023-03-22T07:10:07.505Z,49.25
2023-03-22T07:12:38.470Z,50.50
2023-03-22T07:15:09.465Z,47.25
2023-03-22T07:17:40.368Z,53.75
2023-03-22T07:20:11.507Z,50.75
2023-03-22T07:22:42.199Z,51.75
2023-03-22T07:25:13.775Z,53.00
2023-03-22T07:27:44.966Z,68.75
2023-03-22T07:30:16.880Z,63.50
2023-03-22T07:32:48.396Z,60.25
2023-03-22T07:35:19.164Z,69.75
2023-03-22T07:37:51.058Z,67.25
2023-03-22T07:40:23.499Z,69.00
2023-03-22T07:42:55.829Z,81.00
2023-03-22T07:45:26.862Z,73.50
2023-03-22T07:47:58.079Z,68.75
2023-03-22T07:50:28.550Z,70.50
2023-03-22T07:52:59.111Z,72.00
2023-03-22T07:55:29.544Z,78.50
2023-03-22T07:57:59.805Z,72.25
2023-03-22T08:01:05.485Z,66.25
2023-03-22T08:06:49.938Z,67.75
2023-03-22T08:09:20.475Z,79.00
2023-03-22T08:12:05.654Z,82.25
2023-03-22T08:14:37.262Z,63.75
2023-03-22T08:17:07.626Z,67.50
2023-03-22T08:20:00.402Z,70.50
2023-03-22T08:28:42.312Z,54.75
2023-03-22T08:31:17.493Z,50.50
2023-03-22T08:33:48.834Z,48.00
2023-03-22T08:36:23.157Z,49.00
2023-03-22T08:38:53.834Z,47.00
2023-03-22T08:41:24.928Z,50.25
2023-03-22T08:43:56.937Z,49.75
2023-03-22T08:46:27.857Z,47.75
2023-03-22T08:48:58.361Z,44.00
2023-03-22T08:51:28.825Z,41.00
2023-03-22T08:53:59.179Z,40.00
2023-03-22T08:56:29.601Z,46.50
2023-03-22T08:59:00.507Z,47.00
2023-03-22T09:01:31.219Z,43.00
2023-03-22T09:04:02.927Z,47.00
2023-03-22T09:06:34.584Z,44.75
2023-03-22T09:09:06.016Z,43.25
2023-03-22T09:11:38.739Z,43.00
2023-03-22T09:14:10.280Z,49.75
2023-03-22T09:16:42.233Z,55.75
2023-03-22T09:19:27.107Z,55.50
2023-03-22T09:22:02.907Z,53.00
2023-03-22T09:24:33.914Z,45.00
2023-03-22T09:27:06.253Z,43.75
2023-03-22T09:29:36.595Z,43.25
2023-03-22T09:32:06.897Z,40.75
2023-03-22T09:34:37.446Z,44.00
2023-03-22T09:37:25.680Z,45.75
2023-03-22T09:39:57.176Z,47.00
2023-03-22T09:42:33.457Z,47.25
2023-03-22T09:45:09.400Z,45.00
2023-03-22T09:47:45.381Z,42.00
2023-03-22T09:50:18.952Z,42.75
2023-03-22T09:52:51.208Z,45.00
2023-03-22T09:55:39.472Z,46.25
2023-03-22T09:58:19.390Z,44.00
2023-03-22T10:00:59.199Z,41.00
2023-03-22T10:03:47.701Z,42.75
2023-03-22T10:06:23.917Z,44.80
2023-03-22T10:09:00.512Z,45.25
2023-03-22T10:11:50.421Z,46.00
2023-03-22T10:14:23.690Z,41.00
2023-03-22T10:16:57.506Z,42.00
2023-03-22T10:19:37.858Z,41.00
2023-03-22T10:22:11.730Z,41.00
2023-03-22T10:24:45.743Z,42.00
2023-03-22T10:27:18.948Z,44.00
2023-03-22T10:29:57.996Z,38.00
2023-03-22T10:32:45.214Z,36.20
2023-03-22T10:35:15.167Z,37.20
2023-03-22T10:37:48.607Z,35.00
2023-03-22T10:40:31.523Z,35.40
2023-03-22T10:43:20.896Z,35.60
2023-03-22T10:45:53.546Z,36.40
2023-03-22T10:48:27.857Z,37.40
2023-03-22T10:51:00.242Z,36.60
2023-03-22T10:53:42.638Z,35.80
2023-03-22T10:56:16.065Z,36.20
2023-03-22T10:58:49.131Z,35.60
2023-03-22T11:01:28.337Z,31.20
2023-03-22T11:04:08.144Z,33.00
2023-03-22T11:06:42.562Z,36.00
2023-03-22T11:09:18.745Z,31.80
2023-03-22T11:11:57.367Z,31.00
2023-03-22T11:14:42.895Z,32.60
2023-03-22T11:17:24.642Z,34.80
2023-03-22T11:20:09.504Z,33.80
2023-03-22T11:22:44.644Z,35.80
2023-03-22T11:25:23.747Z,33.60
2023-03-22T11:28:06.677Z,36.00
2023-03-22T11:30:38.481Z,38.00
2023-03-22T11:33:19.369Z,34.20
2023-03-22T11:36:04.531Z,32.40
2023-03-22T11:38:40.323Z,34.80
2023-03-22T11:41:25.965Z,35.60
2023-03-22T11:44:10.950Z,35.80
2023-03-22T11:46:50.775Z,37.20
2023-03-22T11:49:23.230Z,35.40
2023-03-22T11:51:55.894Z,34.60
2023-03-22T11:54:31.689Z,35.80
2023-03-22T11:57:04.929Z,38.00
2023-03-22T11:59:40.149Z,38.20
2023-03-22T12:02:25.116Z,37.00
2023-03-22T12:05:10.367Z,35.00
2023-03-22T12:07:43.246Z,37.00
2023-03-22T12:10:28.436Z,35.20
2023-03-22T12:13:02.400Z,33.20
2023-03-22T12:15:38.989Z,37.80
2023-03-22T12:18:21.330Z,36.00
2023-03-22T12:21:01.085Z,36.40
2023-03-22T12:23:35.314Z,39.20
2023-03-22T12:26:14.413Z,36.20
2023-03-22T12:28:53.700Z,31.20
2023-03-22T12:31:42.359Z,36.20
2023-03-22T12:34:21.820Z,35.80
2023-03-22T12:36:55.553Z,37.60
2023-03-22T12:39:31.527Z,39.40
2023-03-22T12:42:20.256Z,36.80
2023-03-22T12:45:04.021Z,39.40
2023-03-22T12:47:40.684Z,37.75
2023-03-22T12:50:14.447Z,37.40
2023-03-22T12:52:51.968Z,40.50
2023-03-22T12:55:32.021Z,35.20
2023-03-22T12:58:07.717Z,36.40
2023-03-22T13:00:45.849Z,34.60
2023-03-22T13:03:20.165Z,35.00
2023-03-22T13:05:53.007Z,29.40
2023-03-22T13:08:24.576Z,36.20
2023-03-22T13:11:05.934Z,37.80
2023-03-22T13:13:45.909Z,35.50
2023-03-22T13:16:20.632Z,37.75
2023-03-22T13:19:12.880Z,36.50
2023-03-22T13:21:43.442Z,36.75
2023-03-22T13:24:17.130Z,36.50
2023-03-22T13:26:53.629Z,35.75
2023-03-22T13:29:35.447Z,40.00
2023-03-22T13:32:15.396Z,35.50
2023-03-22T13:34:49.100Z,34.75
2023-03-22T13:37:38.132Z,36.75
2023-03-22T13:40:38.619Z,35.00
2023-03-22T13:49:17.385Z,36.80
2023-03-22T13:51:51.186Z,37.20
2023-03-22T13:54:27.638Z,35.20
2023-03-22T13:57:37.151Z,31.80
2023-03-22T14:00:31.424Z,33.60
2023-03-22T14:03:20.638Z,35.80
2023-03-22T14:05:56.631Z,33.40
2023-03-22T14:08:30.914Z,32.60
2023-03-22T14:14:27.698Z,35.60
2023-03-22T14:17:12.871Z,34.40
2023-03-22T14:19:45.144Z,39.75
